createdAt,value
2022-11-25T00:01:34.278Z,3.35
2022-11-25T00:04:02.585Z,3.70
2022-11-25T00:06:32.859Z,3.50
2022-11-25T00:09:03.153Z,3.67
2022-11-25T00:11:36.403Z,3.45
2022-11-25T00:14:04.846Z,3.67
2022-11-25T00:16:32.242Z,3.80
2022-11-25T00:19:01.943Z,3.42
2022-11-25T00:21:33.224Z,3.25
2022-11-25T00:24:24.426Z,3.10
2022-11-25T00:26:51.623Z,3.25
2022-11-25T00:29:18.824Z,3.60
2022-11-25T00:31:46.252Z,3.60
2022-11-25T00:34:15.324Z,3.42
2022-11-25T00:36:42.852Z,3.97
2022-11-25T00:39:12.906Z,3.65
2022-11-25T00:41:59.249Z,3.38
2022-11-25T00:44:35.764Z,2.92
2022-11-25T00:47:17.106Z,3.25
2022-11-25T00:49:49.672Z,3.50
2022-11-25T00:52:19.990Z,3.35
2022-11-25T00:54:49.879Z,3.60
2022-11-25T00:57:19.062Z,3.22
2022-11-25T00:59:46.766Z,3.58
2022-11-25T01:02:15.503Z,3.55
2022-11-25T01:04:44.809Z,3.33
2022-11-25T01:07:15.447Z,3.38
2022-11-25T01:09:42.702Z,3.53
2022-11-25T01:12:09.851Z,2.85
2022-11-25T01:14:37.667Z,3.20
2022-11-25T01:17:05.129Z,3.22
2022-11-25T01:19:33.788Z,3.28
2022-11-25T01:22:01.083Z,2.95
2022-11-25T01:24:28.285Z,3.53
2022-11-25T01:26:58.550Z,3.53
2022-11-25T01:29:25.901Z,3.50
2022-11-25T01:31:57.375Z,3.28
2022-11-25T01:34:26.913Z,3.38
2022-11-25T01:36:57.879Z,3.63
2022-11-25T01:39:31.992Z,3.20
2022-11-25T01:41:59.759Z,3.08
2022-11-25T01:44:29.980Z,3.10
2022-11-25T01:47:00.703Z,3.55
2022-11-25T01:49:37.159Z,3.45
2022-11-25T01:52:29.014Z,3.35
2022-11-25T01:55:08.929Z,3.00
2022-11-25T01:57:46.189Z,3.58
2022-11-25T02:00:14.387Z,3.17
2022-11-25T02:02:45.257Z,3.28
2022-11-25T02:05:16.413Z,3.00
2022-11-25T02:07:48.635Z,3.10
2022-11-25T02:10:21.397Z,3.42
2022-11-25T02:12:48.785Z,3.08
2022-11-25T02:15:16.959Z,3.40
2022-11-25T02:17:44.884Z,3.38
2022-11-25T02:20:23.750Z,3.05
2022-11-25T02:23:17.072Z,3.10
2022-11-25T02:25:46.798Z,3.05
2022-11-25T02:28:20.231Z,3.00
2022-11-25T02:30:50.647Z,3.20
2022-11-25T02:33:18.330Z,3.67
2022-11-25T02:35:52.610Z,3.25
2022-11-25T02:38:36.564Z,3.33
2022-11-25T02:41:11.179Z,2.95
2022-11-25T02:43:39.915Z,3.28
2022-11-25T02:46:20.284Z,3.40
2022-11-25T02:51:38.753Z,3.10
2022-11-25T02:54:07.072Z,2.90
2022-11-25T02:56:35.817Z,3.28
2022-11-25T02:59:04.336Z,3.00
2022-11-25T03:01:32.855Z,3.10
2022-11-25T03:04:00.160Z,3.15
2022-11-25T03:06:29.494Z,3.28
2022-11-25T03:08:57.523Z,2.97
2022-11-25T03:11:43.804Z,3.53
2022-11-25T03:14:11.110Z,3.22
2022-11-25T03:16:40.828Z,3.33
2022-11-25T03:19:08.580Z,3.38
2022-11-25T03:21:38.255Z,3.25
2022-11-25T03:24:05.938Z,3.25
2022-11-25T03:26:33.118Z,2.92
2022-11-25T03:29:00.278Z,3.22
2022-11-25T03:31:28.047Z,3.22
2022-11-25T03:33:56.157Z,2.90
2022-11-25T03:36:23.416Z,3.08
2022-11-25T03:38:50.663Z,2.55
2022-11-25T03:41:18.217Z,3.28
2022-11-25T03:43:46.129Z,3.00
2022-11-25T03:46:13.708Z,3.03
2022-11-25T03:48:40.944Z,2.83
2022-11-25T03:51:08.913Z,3.67
2022-11-25T03:53:36.422Z,2.97
2022-11-25T03:56:06.798Z,3.20
2022-11-25T03:58:35.238Z,3.03
2022-11-25T04:01:06.569Z,3.00
2022-11-25T04:03:34.468Z,3.35
2022-11-25T04:06:01.923Z,3.00
2022-11-25T04:08:30.352Z,3.78
2022-11-25T04:11:01.037Z,3.05
2022-11-25T04:13:32.117Z,2.83
2022-11-25T04:15:59.265Z,3.08
2022-11-25T04:18:26.825Z,3.25
2022-11-25T04:20:56.608Z,2.80
2022-11-25T04:23:28.403Z,3.20
2022-11-25T04:26:03.141Z,3.08
2022-11-25T04:28:35.795Z,3.00
2022-11-25T04:31:07.195Z,3.72
2022-11-25T04:36:03.881Z,3.65
2022-11-25T04:38:31.473Z,4.00
2022-11-25T04:40:58.966Z,3.65
2022-11-25T04:43:26.729Z,3.72
2022-11-25T04:46:13.938Z,3.97
2022-11-25T04:48:42.290Z,3.80
2022-11-25T04:51:09.772Z,3.13
2022-11-25T04:53:37.085Z,3.38
2022-11-25T04:56:05.029Z,3.13
2022-11-25T04:58:58.526Z,3.38
2022-11-25T05:01:26.223Z,3.80
2022-11-25T05:04:00.718Z,3.33
2022-11-25T05:06:28.641Z,3.40
2022-11-25T05:08:55.991Z,3.20
2022-11-25T05:11:25.446Z,3.00
2022-11-25T05:13:53.403Z,3.00
2022-11-25T05:16:20.638Z,2.90
2022-11-25T05:18:50.319Z,2.80
2022-11-25T05:21:17.671Z,3.38
2022-11-25T05:23:45.944Z,3.40
2022-11-25T05:26:14.105Z,2.72
2022-11-25T05:28:51.276Z,3.08
2022-11-25T05:31:19.245Z,2.88
2022-11-25T05:33:46.458Z,2.85
2022-11-25T05:36:15.345Z,2.80
2022-11-25T05:38:48.162Z,3.40
2022-11-25T05:41:21.930Z,3.03
2022-11-25T05:43:51.649Z,3.10
2022-11-25T05:46:20.038Z,2.70
2022-11-25T05:48:55.538Z,2.63
2022-11-25T05:51:25.479Z,3.08
2022-11-25T05:53:55.696Z,3.15
2022-11-25T05:56:26.493Z,3.13
2022-11-25T05:59:19.118Z,3.03
2022-11-25T06:01:59.276Z,3.08
2022-11-25T06:04:27.131Z,2.70
2022-11-25T06:06:54.615Z,2.40
2022-11-25T06:09:23.191Z,3.17
2022-11-25T06:11:51.161Z,2.67
2022-11-25T06:14:21.545Z,2.97
2022-11-25T06:16:50.693Z,2.83
2022-11-25T06:19:37.981Z,3.35
2022-11-25T06:22:05.497Z,3.55
2022-11-25T06:24:32.628Z,4.10
2022-11-25T06:27:05.131Z,4.37
2022-11-25T06:29:33.764Z,4.05
2022-11-25T06:32:01.229Z,4.40
2022-11-25T06:34:46.919Z,4.38
2022-11-25T06:37:25.955Z,4.25
2022-11-25T06:39:53.497Z,4.13
2022-11-25T06:42:20.808Z,4.05
2022-11-25T06:44:47.930Z,5.00
2022-11-25T06:47:17.607Z,4.43
2022-11-25T06:49:44.978Z,4.88
2022-11-25T06:52:12.621Z,4.20
2022-11-25T06:54:42.285Z,4.55
2022-11-25T06:57:10.875Z,4.43
2022-11-25T06:59:38.432Z,4.65
2022-11-25T07:02:05.655Z,4.13
2022-11-25T07:04:35.656Z,3.72
2022-11-25T07:07:03.959Z,4.63
2022-11-25T07:09:31.426Z,4.00
2022-11-25T07:11:59.019Z,4.07
2022-11-25T07:14:26.299Z,5.30
2022-11-25T07:16:53.545Z,4.10
2022-11-25T07:19:20.818Z,3.92
2022-11-25T07:21:48.067Z,4.35
2022-11-25T07:24:17.340Z,4.10
2022-11-25T07:26:45.320Z,4.47
2022-11-25T07:29:51.600Z,4.25
2022-11-25T07:32:10.027Z,4.13
2022-11-25T07:34:38.075Z,4.32
2022-11-25T07:37:05.254Z,4.18
2022-11-25T07:39:32.522Z,4.25
2022-11-25T07:41:59.668Z,4.28
2022-11-25T07:44:26.812Z,4.50
2022-11-25T07:47:01.303Z,3.60
2022-11-25T07:49:28.555Z,3.70
2022-11-25T07:52:04.441Z,4.43
2022-11-25T07:54:33.121Z,4.13
2022-11-25T07:57:00.408Z,3.90
2022-11-25T07:59:27.572Z,4.18
2022-11-25T08:01:56.318Z,4.05
2022-11-25T08:04:23.889Z,4.28
2022-11-25T08:06:52.877Z,4.20
2022-11-25T08:09:23.603Z,4.10
2022-11-25T08:11:53.462Z,4.15
2022-11-25T08:14:21.395Z,3.92
2022-11-25T08:16:48.622Z,4.15
2022-11-25T08:19:17.509Z,3.40
2022-11-25T08:21:45.508Z,4.15
2022-11-25T08:24:18.104Z,4.07
2022-11-25T08:26:45.788Z,4.50
2022-11-25T08:29:15.626Z,4.03
2022-11-25T08:31:43.313Z,4.53
2022-11-25T08:34:21.848Z,4.28
2022-11-25T08:36:53.717Z,4.30
2022-11-25T08:42:13.300Z,4.18
2022-11-25T08:44:40.608Z,3.83
2022-11-25T08:47:09.184Z,3.97
2022-11-25T08:49:41.858Z,3.40
2022-11-25T08:52:10.349Z,3.70
2022-11-25T08:54:38.125Z,3.85
2022-11-25T08:57:05.609Z,3.45
2022-11-25T08:59:36.230Z,3.63
2022-11-25T09:02:03.859Z,3.70
2022-11-25T09:04:31.940Z,3.80
2022-11-25T09:06:59.550Z,3.30
2022-11-25T09:09:27.096Z,3.65
2022-11-25T09:11:56.496Z,3.25
2022-11-25T09:14:23.778Z,3.50
2022-11-25T09:16:51.117Z,3.38
2022-11-25T09:19:20.347Z,3.67
2022-11-25T09:21:47.822Z,4.00
2022-11-25T09:24:15.109Z,3.55
2022-11-25T09:26:43.537Z,3.70
2022-11-25T09:29:13.682Z,3.42
2022-11-25T09:31:43.472Z,3.42
2022-11-25T09:34:10.809Z,4.20
2022-11-25T09:36:40.253Z,3.17
2022-11-25T09:39:09.670Z,3.40
2022-11-25T09:42:07.695Z,3.45
2022-11-25T09:45:55.312Z,3.65
2022-11-25T09:48:58.245Z,3.13
2022-11-25T09:51:57.755Z,3.15
2022-11-25T09:54:35.610Z,3.20
2022-11-25T09:57:27.244Z,3.50
2022-11-25T10:00:06.866Z,3.45
2022-11-25T10:03:00.749Z,3.30
2022-11-25T10:05:34.286Z,3.20
2022-11-25T10:08:08.540Z,3.40
2022-11-25T10:10:48.822Z,3.15
2022-11-25T10:13:23.676Z,3.30
2022-11-25T10:15:51.672Z,3.35
2022-11-25T10:18:31.923Z,3.22
2022-11-25T10:20:59.176Z,3.03
2022-11-25T10:23:33.922Z,3.00
2022-11-25T10:26:22.786Z,3.60
2022-11-25T10:29:26.405Z,3.38
2022-11-25T10:32:03.786Z,3.25
2022-11-25T10:34:40.185Z,3.50
2022-11-25T10:37:19.227Z,3.80
2022-11-25T10:39:46.380Z,3.53
2022-11-25T10:42:21.851Z,3.67
2022-11-25T10:44:49.486Z,3.22
2022-11-25T10:47:28.228Z,3.65
2022-11-25T10:50:15.307Z,3.88
2022-11-25T10:52:57.303Z,3.45
2022-11-25T10:55:33.621Z,3.72
2022-11-25T10:58:25.540Z,3.53
2022-11-25T11:01:37.982Z,3.60
2022-11-25T11:04:11.844Z,3.60
2022-11-25T11:06:44.632Z,3.28
2022-11-25T11:09:38.522Z,3.00
2022-11-25T11:12:25.401Z,3.40
2022-11-25T11:15:32.067Z,3.92
2022-11-25T11:18:14.188Z,3.92
2022-11-25T11:20:49.218Z,4.07
2022-11-25T11:23:16.904Z,4.03
2022-11-25T11:26:09.879Z,3.95
2022-11-25T11:28:37.463Z,4.30
2022-11-25T11:31:27.251Z,3.95
2022-11-25T11:34:18.470Z,4.18
2022-11-25T11:36:55.785Z,5.28
2022-11-25T11:39:25.323Z,4.65
2022-11-25T11:42:18.690Z,5.40
2022-11-25T11:45:03.320Z,4.30
2022-11-25T11:47:55.329Z,5.20
2022-11-25T11:50:47.257Z,5.22
2022-11-25T11:53:41.316Z,4.95
2022-11-25T11:56:37.855Z,4.38
2022-11-25T11:59:07.935Z,4.63
2022-11-25T12:01:43.896Z,4.10
2022-11-25T12:04:22.828Z,3.92
2022-11-25T12:06:59.618Z,3.85
2022-11-25T12:09:31.254Z,3.95
2022-11-25T12:12:06.059Z,3.10
2022-11-25T12:14:47.237Z,3.58
2022-11-25T12:17:28.672Z,3.22
2022-11-25T12:20:07.853Z,3.58
2022-11-25T12:22:49.513Z,3.17
2022-11-25T12:25:22.478Z,2.88
2022-11-25T12:28:00.816Z,3.25
2022-11-25T12:30:40.330Z,2.65
2022-11-25T12:33:21.467Z,3.20
2022-11-25T12:36:03.905Z,3.35
2022-11-25T12:38:38.085Z,3.38
2022-11-25T12:41:16.230Z,3.25
2022-11-25T12:43:48.880Z,3.08
2022-11-25T12:46:35.340Z,2.65
2022-11-25T12:49:03.285Z,3.03
2022-11-25T12:51:45.843Z,2.80
2022-11-25T12:54:13.070Z,2.92
2022-11-25T12:56:51.761Z,2.80
2022-11-25T12:59:39.499Z,2.70
2022-11-25T13:02:40.748Z,3.45
2022-11-25T13:05:39.976Z,2.67
2022-11-25T13:08:26.600Z,3.35
2022-11-25T13:11:12.619Z,2.90
2022-11-25T13:14:02.538Z,2.97
2022-11-25T13:16:32.286Z,4.10
2022-11-25T13:19:00.041Z,3.30
2022-11-25T13:21:29.042Z,3.08
2022-11-25T13:23:58.762Z,3.50
2022-11-25T13:26:28.923Z,3.10
2022-11-25T13:29:05.880Z,2.85
2022-11-25T13:32:01.290Z,2.67
2022-11-25T13:34:34.854Z,3.20
2022-11-25T13:37:36.627Z,2.97
2022-11-25T13:40:26.622Z,2.92
2022-11-25T13:42:55.496Z,3.25
2022-11-25T13:45:28.253Z,2.97
2022-11-25T13:48:04.436Z,2.97
2022-11-25T13:50:55.317Z,2.80
2022-11-25T13:53:33.171Z,3.10
2022-11-25T13:56:24.878Z,3.25
2022-11-25T13:59:14.185Z,3.45
2022-11-25T14:01:53.184Z,3.50
2022-11-25T14:04:40.094Z,3.28
2022-11-25T14:07:23.718Z,2.97
2022-11-25T14:10:24.840Z,3.60
2022-11-25T14:13:30.724Z,3.80
2022-11-25T14:16:26.353Z,3.40
2022-11-25T14:19:43.391Z,3.70
2022-11-25T14:22:44.378Z,3.13
2022-11-25T14:25:48.928Z,3.50
2022-11-25T14:28:36.314Z,3.08
2022-11-25T14:31:08.938Z,3.45
2022-11-25T14:33:48.599Z,3.50
2022-11-25T14:36:25.288Z,3.10
2022-11-25T14:39:24.240Z,3.65
2022-11-25T14:41:54.391Z,3.42
2022-11-25T14:44:27.925Z,3.00
2022-11-25T14:46:59.162Z,2.78
2022-11-25T14:50:33.831Z,3.50
2022-11-25T14:52:56.615Z,3.65
2022-11-25T14:55:32.171Z,3.20
2022-11-25T14:57:59.580Z,3.15
2022-11-25T15:00:27.614Z,3.28
2022-11-25T15:03:00.778Z,3.55
2022-11-25T15:05:37.693Z,2.90
2022-11-25T15:08:07.987Z,3.08
2022-11-25T15:10:44.420Z,3.20
2022-11-25T15:13:34.589Z,3.30
2022-11-25T15:16:06.510Z,3.50
2022-11-25T15:18:37.436Z,3.53
2022-11-25T15:21:08.017Z,2.78
2022-11-25T15:23:38.030Z,3.08
2022-11-25T15:26:40.504Z,3.28
2022-11-25T15:29:12.862Z,2.95
2022-11-25T15:31:41.933Z,3.20
2022-11-25T15:34:15.415Z,3.42
2022-11-25T15:36:45.814Z,2.83
2022-11-25T15:39:21.891Z,2.75
2022-11-25T15:42:05.581Z,2.95
2022-11-25T15:44:38.896Z,3.03
2022-11-25T15:49:36.089Z,3.00
2022-11-25T15:52:08.992Z,2.67
2022-11-25T15:54:44.303Z,2.80
2022-11-25T15:57:17.590Z,3.00
2022-11-25T15:59:55.388Z,2.67
2022-11-25T16:02:34.579Z,3.17
2022-11-25T16:05:13.280Z,2.75
2022-11-25T16:07:49.908Z,2.88
2022-11-25T16:10:17.613Z,2.90
2022-11-25T16:12:44.811Z,2.95
2022-11-25T16:15:20.932Z,3.30
2022-11-25T16:17:48.155Z,2.50
2022-11-25T16:20:48.290Z,2.92
2022-11-25T16:23:57.213Z,2.78
2022-11-25T16:26:37.910Z,3.00
2022-11-25T16:29:23.644Z,2.88
2022-11-25T16:31:50.868Z,3.40
2022-11-25T16:38:42.489Z,2.85
2022-11-25T16:45:43.112Z,2.50
2022-11-25T16:48:29.709Z,2.80
2022-11-25T16:50:57.463Z,2.67
2022-11-25T16:53:24.640Z,3.13
2022-11-25T16:55:54.358Z,3.10
2022-11-25T16:58:24.462Z,3.55
2022-11-25T17:00:55.821Z,3.53
2022-11-25T17:03:26.214Z,3.55
2022-11-25T17:05:55.090Z,3.95
2022-11-25T17:08:22.547Z,5.07
2022-11-25T17:10:52.655Z,4.47
2022-11-25T17:13:23.367Z,5.20
2022-11-25T17:15:50.708Z,5.13
2022-11-25T17:18:19.178Z,4.50
2022-11-25T17:20:46.925Z,4.47
2022-11-25T17:23:16.699Z,4.70
2022-11-25T17:25:50.056Z,4.90
2022-11-25T17:28:20.143Z,4.00
2022-11-25T17:30:48.513Z,4.65
2022-11-25T17:33:19.444Z,4.05
2022-11-25T17:35:47.177Z,4.28
2022-11-25T17:38:22.021Z,4.75
2022-11-25T17:40:50.603Z,4.50
2022-11-25T17:43:22.019Z,4.15
2022-11-25T17:45:49.287Z,4.40
2022-11-25T17:48:18.385Z,4.40
2022-11-25T17:53:55.285Z,4.45
2022-11-25T17:56:26.352Z,4.88
2022-11-25T17:58:54.263Z,4.85
2022-11-25T18:01:21.991Z,4.40
2022-11-25T18:03:52.303Z,4.53
2022-11-25T18:06:25.233Z,5.00
2022-11-25T18:08:52.630Z,4.65
2022-11-25T18:11:22.998Z,5.03
2022-11-25T18:13:57.093Z,4.43
2022-11-25T18:16:29.182Z,5.40
2022-11-25T18:18:59.083Z,5.25
2022-11-25T18:21:26.555Z,4.95
2022-11-25T18:23:53.844Z,4.88
2022-11-25T18:26:23.609Z,5.13
2022-11-25T18:28:50.789Z,4.40
2022-11-25T18:31:21.152Z,5.13
2022-11-25T18:33:49.924Z,4.38
2022-11-25T18:36:18.573Z,5.43
2022-11-25T18:38:48.386Z,5.22
2022-11-25T18:41:21.405Z,6.07
2022-11-25T18:43:48.695Z,5.80
2022-11-25T18:46:16.087Z,5.32
2022-11-25T18:48:43.562Z,5.75
2022-11-25T18:51:14.449Z,4.68
2022-11-25T18:53:41.913Z,4.88
2022-11-25T18:56:17.508Z,5.38
2022-11-25T18:58:52.421Z,4.90
2022-11-25T19:01:23.201Z,5.07
2022-11-25T19:04:01.183Z,5.13
2022-11-25T19:06:51.973Z,4.93
2022-11-25T19:09:21.768Z,5.10
2022-11-25T19:11:53.169Z,5.47
2022-11-25T19:14:30.162Z,4.70
2022-11-25T19:17:05.394Z,5.10
2022-11-25T19:19:33.217Z,5.10
2022-11-25T19:22:01.716Z,5.15
2022-11-25T19:24:36.740Z,5.22
2022-11-25T19:27:04.792Z,4.20
2022-11-25T19:29:41.987Z,4.93
2022-11-25T19:32:30.168Z,5.47
2022-11-25T19:35:02.119Z,4.55
2022-11-25T19:37:32.512Z,4.22
2022-11-25T19:40:00.790Z,4.40
2022-11-25T19:42:31.651Z,4.40
2022-11-25T19:44:58.941Z,5.03
2022-11-25T19:47:28.924Z,4.40
2022-11-25T19:50:01.503Z,4.47
2022-11-25T19:52:35.040Z,4.43
2022-11-25T19:55:20.515Z,4.57
2022-11-25T19:57:48.567Z,4.20
2022-11-25T20:00:20.190Z,4.72
2022-11-25T20:02:49.729Z,4.47
2022-11-25T20:05:27.488Z,3.80
2022-11-25T20:07:55.119Z,3.92
2022-11-25T20:10:28.444Z,4.43
2022-11-25T20:15:26.553Z,4.32
2022-11-25T20:17:58.897Z,4.10
2022-11-25T20:20:33.443Z,3.83
2022-11-25T20:23:15.238Z,3.95
2022-11-25T20:25:45.149Z,3.80
2022-11-25T20:28:21.413Z,4.20
2022-11-25T20:30:52.073Z,4.32
2022-11-25T20:33:24.257Z,3.92
2022-11-25T20:35:58.751Z,4.10
2022-11-25T20:38:28.907Z,4.05
2022-11-25T20:40:58.921Z,3.95
2022-11-25T20:43:31.191Z,3.20
2022-11-25T20:46:00.624Z,3.58
2022-11-25T20:48:29.148Z,3.83
2022-11-25T20:51:00.174Z,3.40
2022-11-25T20:53:30.335Z,3.63
2022-11-25T20:55:58.343Z,3.08
2022-11-25T20:58:29.460Z,3.47
2022-11-25T21:00:58.452Z,3.75
2022-11-25T21:03:26.966Z,3.70
2022-11-25T21:05:56.069Z,3.70
2022-11-25T21:08:25.158Z,3.30
2022-11-25T21:10:55.533Z,3.03
2022-11-25T21:13:28.192Z,3.53
2022-11-25T21:15:58.940Z,3.55
2022-11-25T21:18:26.213Z,3.60
2022-11-25T21:20:55.780Z,4.07
2022-11-25T21:23:33.894Z,3.85
2022-11-25T21:26:06.906Z,3.90
2022-11-25T21:28:41.488Z,3.75
2022-11-25T21:31:14.899Z,3.45
2022-11-25T21:33:45.475Z,3.85
2022-11-25T21:36:18.309Z,3.47
2022-11-25T21:38:46.811Z,3.30
2022-11-25T21:41:36.032Z,3.65
2022-11-25T21:44:07.496Z,3.25
2022-11-25T21:46:34.975Z,3.60
2022-11-25T21:49:04.439Z,3.70
2022-11-25T21:51:31.711Z,3.90
2022-11-25T21:53:59.069Z,4.10
2022-11-25T21:56:34.002Z,3.25
2022-11-25T21:59:04.367Z,3.75
2022-11-25T22:01:32.950Z,3.53
2022-11-25T22:04:02.409Z,3.60
2022-11-25T22:06:32.131Z,3.50
2022-11-25T22:08:59.395Z,3.45
2022-11-25T22:11:33.141Z,3.15
2022-11-25T22:14:04.785Z,4.18
2022-11-25T22:16:36.875Z,2.97
2022-11-25T22:19:04.237Z,3.60
2022-11-25T22:21:31.933Z,3.10
2022-11-25T22:23:59.179Z,3.75
2022-11-25T22:26:34.031Z,3.55
2022-11-25T22:29:02.313Z,3.75
2022-11-25T22:31:29.612Z,3.42
2022-11-25T22:33:58.335Z,3.58
2022-11-25T22:36:28.505Z,3.22
2022-11-25T22:38:59.401Z,3.35
2022-11-25T22:41:26.850Z,3.35
2022-11-25T22:43:54.154Z,3.63
2022-11-25T22:46:21.535Z,3.47
2022-11-25T22:48:48.890Z,3.72
2022-11-25T22:51:18.778Z,3.03
2022-11-25T22:53:46.290Z,2.97
2022-11-25T22:56:18.452Z,3.22
2022-11-25T22:58:46.804Z,3.47
2022-11-25T23:01:17.175Z,3.47
2022-11-25T23:03:44.796Z,3.58
2022-11-25T23:06:13.287Z,2.78
2022-11-25T23:08:40.688Z,3.60
2022-11-25T23:11:21.357Z,3.40
2022-11-25T23:13:50.840Z,3.20
2022-11-25T23:16:18.298Z,3.33
2022-11-25T23:18:46.827Z,3.00
2022-11-25T23:21:23.721Z,3.47
2022-11-25T23:23:51.300Z,3.03
2022-11-25T23:26:18.841Z,2.80
2022-11-25T23:28:46.173Z,3.10
2022-11-25T23:31:14.836Z,2.78
2022-11-25T23:33:50.861Z,3.10
2022-11-25T23:36:26.154Z,3.45
2022-11-25T23:39:04.315Z,3.10
2022-11-25T23:41:34.678Z,3.08
2022-11-25T23:44:15.756Z,3.08
2022-11-25T23:46:44.328Z,3.00
2022-11-25T23:49:24.053Z,3.05
2022-11-25T23:51:52.869Z,3.30
2022-11-25T23:54:24.454Z,3.00
2022-11-25T23:56:51.852Z,3.08
2022-11-25T23:59:19.161Z,2.92
